sensor_id;sensor_type;location;lat;lon;timestamp;P1;durP1;ratioP1;P2;durP2;ratioP2
12587;SDS011;6359;51.450;7.346;2022-11-20T00:01:28;23.07;;;15.93;;
12587;SDS011;6359;51.450;7.346;2022-11-20T00:03:56;29.03;;;16.37;;
12587;SDS011;6359;51.450;7.346;2022-11-20T00:06:24;29.00;;;16.50;;
12587;SDS011;6359;51.450;7.346;2022-11-20T00:08:53;26.90;;;15.90;;
12587;SDS011;6359;51.450;7.346;2022-11-20T00:11:22;26.40;;;15.70;;
12587;SDS011;6359;51.450;7.346;2022-11-20T00:13:51;27.70;;;16.07;;
12587;SDS011;6359;51.450;7.346;2022-11-20T00:16:22;26.90;;;16.23;;
12587;SDS011;6359;51.450;7.346;2022-11-20T00:18:50;25.97;;;15.60;;
12587;SDS011;6359;51.450;7.346;2022-11-20T00:21:18;30.43;;;16.43;;
12587;SDS011;6359;51.450;7.346;2022-11-20T00:23:46;24.13;;;14.83;;
12587;SDS011;6359;51.450;7.346;2022-11-20T00:26:14;27.03;;;17.07;;
12587;SDS011;6359;51.450;7.346;2022-11-20T00:28:44;29.57;;;17.20;;
12587;SDS011;6359;51.450;7.346;2022-11-20T00:31:16;30.30;;;17.33;;
12587;SDS011;6359;51.450;7.346;2022-11-20T00:33:44;29.53;;;16.53;;
12587;SDS011;6359;51.450;7.346;2022-11-20T00:36:13;31.50;;;16.77;;
12587;SDS011;6359;51.450;7.346;2022-11-20T00:38:41;31.17;;;17.27;;
12587;SDS011;6359;51.450;7.346;2022-11-20T00:41:10;27.93;;;17.23;;
12587;SDS011;6359;51.450;7.346;2022-11-20T00:43:38;26.33;;;16.47;;
12587;SDS011;6359;51.450;7.346;2022-11-20T00:46:06;26.47;;;16.57;;
12587;SDS011;6359;51.450;7.346;2022-11-20T00:48:35;24.10;;;15.90;;
12587;SDS011;6359;51.450;7.346;2022-11-20T00:51:04;29.97;;;17.00;;
12587;SDS011;6359;51.450;7.346;2022-11-20T00:53:31;24.47;;;15.47;;
12587;SDS011;6359;51.450;7.346;2022-11-20T00:55:59;27.23;;;16.03;;
12587;SDS011;6359;51.450;7.346;2022-11-20T00:58:28;28.27;;;16.73;;
12587;SDS011;6359;51.450;7.346;2022-11-20T01:00:59;28.83;;;17.20;;
12587;SDS011;6359;51.450;7.346;2022-11-20T01:03:27;28.73;;;16.70;;
12587;SDS011;6359;51.450;7.346;2022-11-20T01:05:59;24.47;;;15.90;;
12587;SDS011;6359;51.450;7.346;2022-11-20T01:08:30;26.90;;;16.10;;
12587;SDS011;6359;51.450;7.346;2022-11-20T01:11:00;27.90;;;16.77;;
12587;SDS011;6359;51.450;7.346;2022-11-20T01:13:29;26.20;;;17.23;;
12587;SDS011;6359;51.450;7.346;2022-11-20T01:16:06;24.23;;;16.07;;
12587;SDS011;6359;51.450;7.346;2022-11-20T01:18:34;29.73;;;17.43;;
12587;SDS011;6359;51.450;7.346;2022-11-20T01:21:04;27.17;;;17.63;;
12587;SDS011;6359;51.450;7.346;2022-11-20T01:23:34;25.83;;;15.53;;
12587;SDS011;6359;51.450;7.346;2022-11-20T01:26:02;25.90;;;16.50;;
12587;SDS011;6359;51.450;7.346;2022-11-20T01:28:30;22.63;;;15.80;;
12587;SDS011;6359;51.450;7.346;2022-11-20T01:30:58;24.17;;;16.23;;
12587;SDS011;6359;51.450;7.346;2022-11-20T01:33:25;29.43;;;17.10;;
12587;SDS011;6359;51.450;7.346;2022-11-20T01:35:52;25.67;;;16.67;;
12587;SDS011;6359;51.450;7.346;2022-11-20T01:38:19;28.20;;;16.70;;
12587;SDS011;6359;51.450;7.346;2022-11-20T01:40:54;26.10;;;16.67;;
12587;SDS011;6359;51.450;7.346;2022-11-20T01:43:22;23.87;;;16.10;;
12587;SDS011;6359;51.450;7.346;2022-11-20T01:46:05;26.17;;;17.00;;
12587;SDS011;6359;51.450;7.346;2022-11-20T01:48:42;27.83;;;16.90;;
12587;SDS011;6359;51.450;7.346;2022-11-20T01:51:12;28.57;;;17.63;;
12587;SDS011;6359;51.450;7.346;2022-11-20T01:53:43;30.30;;;16.73;;
12587;SDS011;6359;51.450;7.346;2022-11-20T01:56:12;24.73;;;15.87;;
12587;SDS011;6359;51.450;7.346;2022-11-20T01:58:42;26.53;;;16.77;;
12587;SDS011;6359;51.450;7.346;2022-11-20T02:01:13;25.77;;;16.77;;
12587;SDS011;6359;51.450;7.346;2022-11-20T02:03:41;27.83;;;17.17;;
12587;SDS011;6359;51.450;7.346;2022-11-20T02:06:11;26.27;;;16.77;;
12587;SDS011;6359;51.450;7.346;2022-11-20T02:08:43;30.57;;;17.13;;
12587;SDS011;6359;51.450;7.346;2022-11-20T02:11:10;25.50;;;15.83;;
12587;SDS011;6359;51.450;7.346;2022-11-20T02:13:39;26.90;;;16.80;;
12587;SDS011;6359;51.450;7.346;2022-11-20T02:16:08;25.70;;;16.97;;
12587;SDS011;6359;51.450;7.346;2022-11-20T02:18:38;25.57;;;16.67;;
12587;SDS011;6359;51.450;7.346;2022-11-20T02:21:06;28.13;;;17.73;;
12587;SDS011;6359;51.450;7.346;2022-11-20T02:23:38;28.87;;;17.33;;
12587;SDS011;6359;51.450;7.346;2022-11-20T02:26:11;25.73;;;15.60;;
12587;SDS011;6359;51.450;7.346;2022-11-20T02:28:41;27.00;;;16.70;;
12587;SDS011;6359;51.450;7.346;2022-11-20T02:31:08;22.50;;;16.50;;
12587;SDS011;6359;51.450;7.346;2022-11-20T02:33:35;27.27;;;15.83;;
12587;SDS011;6359;51.450;7.346;2022-11-20T02:36:02;22.03;;;14.97;;
12587;SDS011;6359;51.450;7.346;2022-11-20T02:38:30;31.23;;;17.77;;
12587;SDS011;6359;51.450;7.346;2022-11-20T02:40:57;30.13;;;17.87;;
12587;SDS011;6359;51.450;7.346;2022-11-20T02:43:26;21.47;;;15.53;;
12587;SDS011;6359;51.450;7.346;2022-11-20T02:45:53;24.87;;;16.07;;
12587;SDS011;6359;51.450;7.346;2022-11-20T02:48:20;22.73;;;15.30;;
12587;SDS011;6359;51.450;7.346;2022-11-20T02:50:47;25.67;;;15.83;;
12587;SDS011;6359;51.450;7.346;2022-11-20T02:53:14;22.60;;;15.20;;
12587;SDS011;6359;51.450;7.346;2022-11-20T02:55:41;24.70;;;15.70;;
12587;SDS011;6359;51.450;7.346;2022-11-20T02:58:08;22.47;;;15.90;;
12587;SDS011;6359;51.450;7.346;2022-11-20T03:00:36;23.37;;;16.20;;
12587;SDS011;6359;51.450;7.346;2022-11-20T03:03:03;26.03;;;15.20;;
12587;SDS011;6359;51.450;7.346;2022-11-20T03:05:30;23.03;;;15.87;;
12587;SDS011;6359;51.450;7.346;2022-11-20T03:07:57;22.83;;;14.53;;
12587;SDS011;6359;51.450;7.346;2022-11-20T03:10:24;24.73;;;16.67;;
12587;SDS011;6359;51.450;7.346;2022-11-20T03:12:52;25.40;;;15.53;;
12587;SDS011;6359;51.450;7.346;2022-11-20T03:15:20;22.53;;;15.63;;
12587;SDS011;6359;51.450;7.346;2022-11-20T03:17:49;22.27;;;14.33;;
12587;SDS011;6359;51.450;7.346;2022-11-20T03:20:19;22.20;;;15.33;;
12587;SDS011;6359;51.450;7.346;2022-11-20T03:22:46;25.07;;;16.17;;
12587;SDS011;6359;51.450;7.346;2022-11-20T03:25:13;22.23;;;15.77;;
12587;SDS011;6359;51.450;7.346;2022-11-20T03:27:39;24.97;;;15.80;;
12587;SDS011;6359;51.450;7.346;2022-11-20T03:30:07;24.03;;;15.73;;
12587;SDS011;6359;51.450;7.346;2022-11-20T03:32:35;25.10;;;15.63;;
12587;SDS011;6359;51.450;7.346;2022-11-20T03:35:03;23.10;;;14.43;;
12587;SDS011;6359;51.450;7.346;2022-11-20T03:37:31;21.73;;;15.30;;
12587;SDS011;6359;51.450;7.346;2022-11-20T03:39:58;24.87;;;15.53;;
12587;SDS011;6359;51.450;7.346;2022-11-20T03:42:25;22.90;;;14.57;;
12587;SDS011;6359;51.450;7.346;2022-11-20T03:45:09;23.33;;;14.20;;
12587;SDS011;6359;51.450;7.346;2022-11-20T03:47:37;20.83;;;14.20;;
12587;SDS011;6359;51.450;7.346;2022-11-20T03:50:06;21.60;;;15.80;;
12587;SDS011;6359;51.450;7.346;2022-11-20T03:52:34;20.77;;;13.70;;
12587;SDS011;6359;51.450;7.346;2022-11-20T03:55:01;22.57;;;14.57;;
12587;SDS011;6359;51.450;7.346;2022-11-20T03:57:28;22.57;;;14.77;;
12587;SDS011;6359;51.450;7.346;2022-11-20T03:59:55;21.03;;;14.47;;
12587;SDS011;6359;51.450;7.346;2022-11-20T04:02:22;23.43;;;15.27;;
12587;SDS011;6359;51.450;7.346;2022-11-20T04:04:49;21.07;;;13.83;;
12587;SDS011;6359;51.450;7.346;2022-11-20T04:07:17;21.63;;;14.43;;
12587;SDS011;6359;51.450;7.346;2022-11-20T04:09:44;21.17;;;13.67;;
12587;SDS011;6359;51.450;7.346;2022-11-20T04:12:11;22.07;;;14.53;;
12587;SDS011;6359;51.450;7.346;2022-11-20T04:14:38;21.33;;;14.30;;
12587;SDS011;6359;51.450;7.346;2022-11-20T04:17:05;22.30;;;14.63;;
12587;SDS011;6359;51.450;7.346;2022-11-20T04:19:32;20.77;;;13.47;;
12587;SDS011;6359;51.450;7.346;2022-11-20T04:21:58;20.10;;;13.97;;
12587;SDS011;6359;51.450;7.346;2022-11-20T04:24:27;21.30;;;13.97;;
12587;SDS011;6359;51.450;7.346;2022-11-20T04:26:54;19.47;;;14.10;;
12587;SDS011;6359;51.450;7.346;2022-11-20T04:29:21;22.23;;;13.73;;
12587;SDS011;6359;51.450;7.346;2022-11-20T04:31:48;19.37;;;13.33;;
12587;SDS011;6359;51.450;7.346;2022-11-20T04:34:15;22.57;;;14.90;;
12587;SDS011;6359;51.450;7.346;2022-11-20T04:36:42;19.83;;;14.40;;
12587;SDS011;6359;51.450;7.346;2022-11-20T04:39:11;18.70;;;13.77;;
12587;SDS011;6359;51.450;7.346;2022-11-20T04:41:41;19.90;;;13.93;;
12587;SDS011;6359;51.450;7.346;2022-11-20T04:44:08;20.07;;;13.70;;
12587;SDS011;6359;51.450;7.346;2022-11-20T04:46:36;17.73;;;12.77;;
12587;SDS011;6359;51.450;7.346;2022-11-20T04:49:05;22.80;;;14.03;;
12587;SDS011;6359;51.450;7.346;2022-11-20T04:51:32;20.57;;;13.63;;
12587;SDS011;6359;51.450;7.346;2022-11-20T04:54:00;19.77;;;13.70;;
12587;SDS011;6359;51.450;7.346;2022-11-20T04:56:27;21.43;;;13.70;;
12587;SDS011;6359;51.450;7.346;2022-11-20T04:58:55;22.27;;;14.60;;
12587;SDS011;6359;51.450;7.346;2022-11-20T05:01:25;21.07;;;13.83;;
12587;SDS011;6359;51.450;7.346;2022-11-20T05:03:52;18.97;;;14.17;;
12587;SDS011;6359;51.450;7.346;2022-11-20T05:06:20;20.07;;;14.20;;
12587;SDS011;6359;51.450;7.346;2022-11-20T05:08:47;21.20;;;14.20;;
12587;SDS011;6359;51.450;7.346;2022-11-20T05:11:15;20.90;;;13.83;;
12587;SDS011;6359;51.450;7.346;2022-11-20T05:13:44;22.03;;;14.07;;
12587;SDS011;6359;51.450;7.346;2022-11-20T05:16:12;20.50;;;14.03;;
12587;SDS011;6359;51.450;7.346;2022-11-20T05:18:40;21.37;;;14.30;;
12587;SDS011;6359;51.450;7.346;2022-11-20T05:21:08;19.70;;;13.53;;
12587;SDS011;6359;51.450;7.346;2022-11-20T05:23:36;19.40;;;13.60;;
12587;SDS011;6359;51.450;7.346;2022-11-20T05:26:03;22.57;;;13.83;;
12587;SDS011;6359;51.450;7.346;2022-11-20T05:28:31;24.43;;;13.90;;
12587;SDS011;6359;51.450;7.346;2022-11-20T05:31:03;18.77;;;13.63;;
12587;SDS011;6359;51.450;7.346;2022-11-20T05:33:33;21.47;;;14.00;;
12587;SDS011;6359;51.450;7.346;2022-11-20T05:36:01;21.20;;;14.10;;
12587;SDS011;6359;51.450;7.346;2022-11-20T05:38:28;19.90;;;13.90;;
12587;SDS011;6359;51.450;7.346;2022-11-20T05:40:55;21.00;;;14.13;;
12587;SDS011;6359;51.450;7.346;2022-11-20T05:43:31;22.40;;;14.50;;
12587;SDS011;6359;51.450;7.346;2022-11-20T05:45:58;19.20;;;13.67;;
12587;SDS011;6359;51.450;7.346;2022-11-20T05:48:25;19.07;;;13.20;;
12587;SDS011;6359;51.450;7.346;2022-11-20T05:50:53;19.30;;;13.23;;
12587;SDS011;6359;51.450;7.346;2022-11-20T05:53:20;21.07;;;13.53;;
12587;SDS011;6359;51.450;7.346;2022-11-20T05:55:47;21.80;;;14.17;;
12587;SDS011;6359;51.450;7.346;2022-11-20T05:58:23;19.20;;;13.67;;
12587;SDS011;6359;51.450;7.346;2022-11-20T06:00:49;21.47;;;13.77;;
12587;SDS011;6359;51.450;7.346;2022-11-20T06:03:16;21.23;;;12.97;;
12587;SDS011;6359;51.450;7.346;2022-11-20T06:05:43;19.77;;;13.70;;
12587;SDS011;6359;51.450;7.346;2022-11-20T06:08:11;18.23;;;12.73;;
12587;SDS011;6359;51.450;7.346;2022-11-20T06:10:38;20.87;;;13.97;;
12587;SDS011;6359;51.450;7.346;2022-11-20T06:13:05;19.70;;;13.70;;
12587;SDS011;6359;51.450;7.346;2022-11-20T06:15:32;18.57;;;12.90;;
12587;SDS011;6359;51.450;7.346;2022-11-20T06:17:59;20.50;;;12.47;;
12587;SDS011;6359;51.450;7.346;2022-11-20T06:20:26;23.77;;;14.17;;
12587;SDS011;6359;51.450;7.346;2022-11-20T06:22:53;20.43;;;14.23;;
12587;SDS011;6359;51.450;7.346;2022-11-20T06:25:21;19.13;;;12.90;;
12587;SDS011;6359;51.450;7.346;2022-11-20T06:27:48;19.53;;;12.97;;
12587;SDS011;6359;51.450;7.346;2022-11-20T06:30:15;19.90;;;13.40;;
12587;SDS011;6359;51.450;7.346;2022-11-20T06:32:42;19.47;;;13.60;;
12587;SDS011;6359;51.450;7.346;2022-11-20T06:35:09;19.60;;;13.00;;
12587;SDS011;6359;51.450;7.346;2022-11-20T06:37:36;19.70;;;13.43;;
12587;SDS011;6359;51.450;7.346;2022-11-20T06:40:03;20.13;;;14.23;;
12587;SDS011;6359;51.450;7.346;2022-11-20T06:42:33;26.60;;;14.57;;
12587;SDS011;6359;51.450;7.346;2022-11-20T06:45:00;22.43;;;14.43;;
12587;SDS011;6359;51.450;7.346;2022-11-20T06:47:27;24.80;;;14.90;;
12587;SDS011;6359;51.450;7.346;2022-11-20T06:49:53;23.07;;;13.83;;
12587;SDS011;6359;51.450;7.346;2022-11-20T06:52:20;22.23;;;14.03;;
12587;SDS011;6359;51.450;7.346;2022-11-20T06:54:47;22.60;;;14.63;;
12587;SDS011;6359;51.450;7.346;2022-11-20T06:57:14;22.03;;;14.50;;
12587;SDS011;6359;51.450;7.346;2022-11-20T06:59:42;24.23;;;14.67;;
12587;SDS011;6359;51.450;7.346;2022-11-20T07:02:09;27.80;;;15.17;;
12587;SDS011;6359;51.450;7.346;2022-11-20T07:04:37;22.63;;;15.23;;
12587;SDS011;6359;51.450;7.346;2022-11-20T07:07:04;21.00;;;13.40;;
12587;SDS011;6359;51.450;7.346;2022-11-20T07:09:32;22.70;;;13.87;;
12587;SDS011;6359;51.450;7.346;2022-11-20T07:11:59;26.53;;;15.00;;
12587;SDS011;6359;51.450;7.346;2022-11-20T07:14:26;23.03;;;14.80;;
12587;SDS011;6359;51.450;7.346;2022-11-20T07:16:55;25.33;;;15.77;;
12587;SDS011;6359;51.450;7.346;2022-11-20T07:19:22;23.50;;;14.83;;
12587;SDS011;6359;51.450;7.346;2022-11-20T07:21:48;24.60;;;14.87;;
12587;SDS011;6359;51.450;7.346;2022-11-20T07:24:15;22.40;;;14.40;;
12587;SDS011;6359;51.450;7.346;2022-11-20T07:26:45;25.47;;;14.73;;
12587;SDS011;6359;51.450;7.346;2022-11-20T07:29:13;22.23;;;14.00;;
12587;SDS011;6359;51.450;7.346;2022-11-20T07:31:41;26.50;;;15.90;;
12587;SDS011;6359;51.450;7.346;2022-11-20T07:34:10;23.20;;;14.23;;
12587;SDS011;6359;51.450;7.346;2022-11-20T07:36:36;22.73;;;13.37;;
12587;SDS011;6359;51.450;7.346;2022-11-20T07:39:03;25.43;;;14.70;;
12587;SDS011;6359;51.450;7.346;2022-11-20T07:41:30;24.63;;;13.87;;
12587;SDS011;6359;51.450;7.346;2022-11-20T07:43:57;26.63;;;14.73;;
12587;SDS011;6359;51.450;7.346;2022-11-20T07:46:24;22.17;;;13.80;;
12587;SDS011;6359;51.450;7.346;2022-11-20T07:48:51;27.57;;;14.83;;
12587;SDS011;6359;51.450;7.346;2022-11-20T07:51:19;21.77;;;14.30;;
12587;SDS011;6359;51.450;7.346;2022-11-20T07:53:46;30.77;;;14.50;;
12587;SDS011;6359;51.450;7.346;2022-11-20T07:56:13;20.50;;;13.87;;
12587;SDS011;6359;51.450;7.346;2022-11-20T07:58:39;25.27;;;14.17;;
12587;SDS011;6359;51.450;7.346;2022-11-20T08:01:07;18.37;;;12.47;;
12587;SDS011;6359;51.450;7.346;2022-11-20T08:03:34;25.80;;;13.90;;
12587;SDS011;6359;51.450;7.346;2022-11-20T08:06:02;28.33;;;15.07;;
12587;SDS011;6359;51.450;7.346;2022-11-20T08:08:31;23.90;;;15.70;;
12587;SDS011;6359;51.450;7.346;2022-11-20T08:10:58;25.97;;;14.43;;
12587;SDS011;6359;51.450;7.346;2022-11-20T08:13:39;28.30;;;14.83;;
12587;SDS011;6359;51.450;7.346;2022-11-20T08:16:23;20.90;;;14.13;;
12587;SDS011;6359;51.450;7.346;2022-11-20T08:18:50;23.30;;;14.33;;
12587;SDS011;6359;51.450;7.346;2022-11-20T08:21:17;24.70;;;14.50;;
12587;SDS011;6359;51.450;7.346;2022-11-20T08:23:45;20.73;;;13.60;;
12587;SDS011;6359;51.450;7.346;2022-11-20T08:26:13;21.40;;;13.57;;
12587;SDS011;6359;51.450;7.346;2022-11-20T08:28:40;27.57;;;14.90;;
12587;SDS011;6359;51.450;7.346;2022-11-20T08:31:07;22.27;;;13.47;;
12587;SDS011;6359;51.450;7.346;2022-11-20T08:33:35;21.80;;;14.27;;
12587;SDS011;6359;51.450;7.346;2022-11-20T08:36:02;20.27;;;13.47;;
12587;SDS011;6359;51.450;7.346;2022-11-20T08:38:30;19.63;;;13.63;;
12587;SDS011;6359;51.450;7.346;2022-11-20T08:40:59;18.90;;;13.53;;
12587;SDS011;6359;51.450;7.346;2022-11-20T08:43:45;30.40;;;15.33;;
12587;SDS011;6359;51.450;7.346;2022-11-20T08:46:12;21.60;;;14.80;;
12587;SDS011;6359;51.450;7.346;2022-11-20T08:48:39;20.80;;;14.30;;
12587;SDS011;6359;51.450;7.346;2022-11-20T08:51:06;20.30;;;14.30;;
12587;SDS011;6359;51.450;7.346;2022-11-20T08:53:33;21.98;;;15.02;;
12587;SDS011;6359;51.450;7.346;2022-11-20T08:56:01;17.38;;;12.48;;
12587;SDS011;6359;51.450;7.346;2022-11-20T08:58:28;18.70;;;12.30;;
12587;SDS011;6359;51.450;7.346;2022-11-20T09:00:55;17.08;;;11.40;;
12587;SDS011;6359;51.450;7.346;2022-11-20T09:03:22;13.38;;;10.45;;
12587;SDS011;6359;51.450;7.346;2022-11-20T09:05:55;12.23;;;10.18;;
12587;SDS011;6359;51.450;7.346;2022-11-20T09:08:23;16.65;;;10.75;;
12587;SDS011;6359;51.450;7.346;2022-11-20T09:10:51;14.68;;;10.60;;
12587;SDS011;6359;51.450;7.346;2022-11-20T09:13:19;12.68;;;9.80;;
12587;SDS011;6359;51.450;7.346;2022-11-20T09:15:46;12.75;;;10.85;;
12587;SDS011;6359;51.450;7.346;2022-11-20T09:18:13;13.82;;;10.43;;
12587;SDS011;6359;51.450;7.346;2022-11-20T09:20:40;14.50;;;10.90;;
12587;SDS011;6359;51.450;7.346;2022-11-20T09:23:07;12.93;;;10.93;;
12587;SDS011;6359;51.450;7.346;2022-11-20T09:25:34;12.93;;;10.95;;
12587;SDS011;6359;51.450;7.346;2022-11-20T09:28:00;16.05;;;10.85;;
12587;SDS011;6359;51.450;7.346;2022-11-20T09:30:29;14.13;;;9.02;;
12587;SDS011;6359;51.450;7.346;2022-11-20T09:32:56;14.50;;;8.98;;
12587;SDS011;6359;51.450;7.346;2022-11-20T09:35:23;9.30;;;7.65;;
12587;SDS011;6359;51.450;7.346;2022-11-20T09:37:50;7.57;;;6.50;;
12587;SDS011;6359;51.450;7.346;2022-11-20T09:40:19;8.95;;;6.13;;
12587;SDS011;6359;51.450;7.346;2022-11-20T09:42:47;7.88;;;6.35;;
12587;SDS011;6359;51.450;7.346;2022-11-20T09:45:21;10.13;;;6.70;;
12587;SDS011;6359;51.450;7.346;2022-11-20T09:48:00;9.23;;;6.80;;
12587;SDS011;6359;51.450;7.346;2022-11-20T09:50:46;9.57;;;7.82;;
12587;SDS011;6359;51.450;7.346;2022-11-20T09:53:20;7.43;;;6.65;;
12587;SDS011;6359;51.450;7.346;2022-11-20T09:55:52;8.57;;;6.80;;
12587;SDS011;6359;51.450;7.346;2022-11-20T09:58:23;9.68;;;7.30;;
12587;SDS011;6359;51.450;7.346;2022-11-20T10:00:56;10.70;;;7.38;;
12587;SDS011;6359;51.450;7.346;2022-11-20T10:03:38;8.80;;;7.07;;
12587;SDS011;6359;51.450;7.346;2022-11-20T10:06:11;8.23;;;6.88;;
12587;SDS011;6359;51.450;7.346;2022-11-20T10:08:42;9.00;;;7.57;;
12587;SDS011;6359;51.450;7.346;2022-11-20T10:11:13;13.45;;;8.82;;
12587;SDS011;6359;51.450;7.346;2022-11-20T10:13:51;10.25;;;8.57;;
12587;SDS011;6359;51.450;7.346;2022-11-20T10:16:29;11.55;;;8.60;;
12587;SDS011;6359;51.450;7.346;2022-11-20T10:19:13;11.35;;;8.75;;
12587;SDS011;6359;51.450;7.346;2022-11-20T10:21:53;12.73;;;9.90;;
12587;SDS011;6359;51.450;7.346;2022-11-20T10:24:37;14.20;;;10.48;;
12587;SDS011;6359;51.450;7.346;2022-11-20T10:27:17;12.32;;;9.65;;
12587;SDS011;6359;51.450;7.346;2022-11-20T10:29:59;9.25;;;7.85;;
12587;SDS011;6359;51.450;7.346;2022-11-20T10:32:29;10.00;;;7.93;;
12587;SDS011;6359;51.450;7.346;2022-11-20T10:35:03;9.80;;;8.15;;
12587;SDS011;6359;51.450;7.346;2022-11-20T10:37:34;13.23;;;8.73;;
12587;SDS011;6359;51.450;7.346;2022-11-20T10:40:14;13.10;;;8.80;;
12587;SDS011;6359;51.450;7.346;2022-11-20T10:42:48;14.52;;;8.07;;
12587;SDS011;6359;51.450;7.346;2022-11-20T10:45:21;12.35;;;7.68;;
12587;SDS011;6359;51.450;7.346;2022-11-20T10:48:07;10.85;;;7.97;;
12587;SDS011;6359;51.450;7.346;2022-11-20T10:50:44;11.73;;;7.82;;
12587;SDS011;6359;51.450;7.346;2022-11-20T10:53:22;12.18;;;8.60;;
12587;SDS011;6359;51.450;7.346;2022-11-20T10:56:05;11.40;;;9.00;;
12587;SDS011;6359;51.450;7.346;2022-11-20T10:58:39;13.85;;;9.57;;
12587;SDS011;6359;51.450;7.346;2022-11-20T11:01:13;16.38;;;9.27;;
12587;SDS011;6359;51.450;7.346;2022-11-20T11:03:41;13.52;;;9.05;;
12587;SDS011;6359;51.450;7.346;2022-11-20T11:06:13;13.55;;;10.27;;
12587;SDS011;6359;51.450;7.346;2022-11-20T11:08:46;13.77;;;10.07;;
12587;SDS011;6359;51.450;7.346;2022-11-20T11:11:18;12.15;;;9.77;;
12587;SDS011;6359;51.450;7.346;2022-11-20T11:13:48;14.90;;;9.57;;
12587;SDS011;6359;51.450;7.346;2022-11-20T11:16:21;12.20;;;9.23;;
12587;SDS011;6359;51.450;7.346;2022-11-20T11:18:50;14.02;;;8.75;;
12587;SDS011;6359;51.450;7.346;2022-11-20T11:21:22;14.82;;;9.65;;
12587;SDS011;6359;51.450;7.346;2022-11-20T11:24:00;13.52;;;9.18;;
12587;SDS011;6359;51.450;7.346;2022-11-20T11:26:29;12.02;;;8.57;;
12587;SDS011;6359;51.450;7.346;2022-11-20T11:28:57;13.23;;;9.60;;
12587;SDS011;6359;51.450;7.346;2022-11-20T11:31:26;13.30;;;9.43;;
12587;SDS011;6359;51.450;7.346;2022-11-20T11:34:03;12.02;;;8.95;;
12587;SDS011;6359;51.450;7.346;2022-11-20T11:36:32;8.65;;;7.07;;
12587;SDS011;6359;51.450;7.346;2022-11-20T11:39:02;10.23;;;7.18;;
12587;SDS011;6359;51.450;7.346;2022-11-20T11:41:31;8.52;;;6.93;;
12587;SDS011;6359;51.450;7.346;2022-11-20T11:44:01;11.05;;;9.38;;
12587;SDS011;6359;51.450;7.346;2022-11-20T11:47:03;12.27;;;9.05;;
12587;SDS011;6359;51.450;7.346;2022-11-20T11:49:32;10.63;;;8.68;;
12587;SDS011;6359;51.450;7.346;2022-11-20T11:52:02;10.50;;;7.85;;
12587;SDS011;6359;51.450;7.346;2022-11-20T11:54:36;10.30;;;6.75;;
12587;SDS011;6359;51.450;7.346;2022-11-20T11:57:09;10.43;;;6.70;;
12587;SDS011;6359;51.450;7.346;2022-11-20T11:59:44;8.60;;;6.22;;
12587;SDS011;6359;51.450;7.346;2022-11-20T12:02:23;10.95;;;6.45;;
12587;SDS011;6359;51.450;7.346;2022-11-20T12:04:57;9.70;;;7.05;;
12587;SDS011;6359;51.450;7.346;2022-11-20T12:07:32;12.13;;;7.55;;
12587;SDS011;6359;51.450;7.346;2022-11-20T12:10:07;9.60;;;6.85;;
12587;SDS011;6359;51.450;7.346;2022-11-20T12:12:42;10.70;;;7.40;;
12587;SDS011;6359;51.450;7.346;2022-11-20T12:15:14;9.48;;;6.75;;
12587;SDS011;6359;51.450;7.346;2022-11-20T12:17:49;10.55;;;6.88;;
12587;SDS011;6359;51.450;7.346;2022-11-20T12:20:16;9.90;;;6.85;;
12587;SDS011;6359;51.450;7.346;2022-11-20T12:22:46;9.98;;;6.80;;
12587;SDS011;6359;51.450;7.346;2022-11-20T12:25:20;10.00;;;7.35;;
12587;SDS011;6359;51.450;7.346;2022-11-20T12:28:03;9.90;;;6.97;;
12587;SDS011;6359;51.450;7.346;2022-11-20T12:31:03;8.93;;;6.55;;
12587;SDS011;6359;51.450;7.346;2022-11-20T12:33:44;8.57;;;6.47;;
12587;SDS011;6359;51.450;7.346;2022-11-20T12:36:24;8.75;;;6.75;;
12587;SDS011;6359;51.450;7.346;2022-11-20T12:39:04;10.15;;;7.30;;
12587;SDS011;6359;51.450;7.346;2022-11-20T12:41:58;12.07;;;8.07;;
12587;SDS011;6359;51.450;7.346;2022-11-20T12:45:14;10.27;;;7.53;;
12587;SDS011;6359;51.450;7.346;2022-11-20T12:51:01;11.23;;;7.32;;
12587;SDS011;6359;51.450;7.346;2022-11-20T12:53:40;11.07;;;7.65;;
12587;SDS011;6359;51.450;7.346;2022-11-20T12:56:19;19.85;;;12.80;;
12587;SDS011;6359;51.450;7.346;2022-11-20T12:58:58;13.07;;;9.65;;
12587;SDS011;6359;51.450;7.346;2022-11-20T13:01:37;12.95;;;9.20;;
12587;SDS011;6359;51.450;7.346;2022-11-20T13:04:17;12.65;;;8.30;;
12587;SDS011;6359;51.450;7.346;2022-11-20T13:06:52;12.80;;;8.65;;
12587;SDS011;6359;51.450;7.346;2022-11-20T13:09:20;13.05;;;8.32;;
12587;SDS011;6359;51.450;7.346;2022-11-20T13:11:54;12.43;;;8.45;;
12587;SDS011;6359;51.450;7.346;2022-11-20T13:14:31;13.00;;;9.48;;
12587;SDS011;6359;51.450;7.346;2022-11-20T13:17:04;19.85;;;10.02;;
12587;SDS011;6359;51.450;7.346;2022-11-20T13:19:36;11.40;;;8.43;;
12587;SDS011;6359;51.450;7.346;2022-11-20T13:22:03;12.65;;;9.23;;
12587;SDS011;6359;51.450;7.346;2022-11-20T13:24:31;13.48;;;9.25;;
12587;SDS011;6359;51.450;7.346;2022-11-20T13:27:17;12.20;;;9.13;;
12587;SDS011;6359;51.450;7.346;2022-11-20T13:29:46;13.55;;;9.05;;
12587;SDS011;6359;51.450;7.346;2022-11-20T13:32:25;12.98;;;9.65;;
12587;SDS011;6359;51.450;7.346;2022-11-20T13:34:57;13.32;;;9.63;;
12587;SDS011;6359;51.450;7.346;2022-11-20T13:37:30;16.08;;;10.20;;
12587;SDS011;6359;51.450;7.346;2022-11-20T13:40:19;14.90;;;8.65;;
12587;SDS011;6359;51.450;7.346;2022-11-20T13:43:00;14.32;;;9.45;;
12587;SDS011;6359;51.450;7.346;2022-11-20T13:45:31;15.10;;;10.43;;
12587;SDS011;6359;51.450;7.346;2022-11-20T13:48:00;14.98;;;10.15;;
12587;SDS011;6359;51.450;7.346;2022-11-20T13:53:24;14.48;;;10.23;;
12587;SDS011;6359;51.450;7.346;2022-11-20T13:56:17;15.65;;;9.95;;
12587;SDS011;6359;51.450;7.346;2022-11-20T13:58:54;14.82;;;10.18;;
12587;SDS011;6359;51.450;7.346;2022-11-20T14:01:31;13.70;;;9.50;;
12587;SDS011;6359;51.450;7.346;2022-11-20T14:03:59;15.55;;;9.60;;
12587;SDS011;6359;51.450;7.346;2022-11-20T14:06:34;17.73;;;10.88;;
12587;SDS011;6359;51.450;7.346;2022-11-20T14:09:09;15.25;;;9.57;;
12587;SDS011;6359;51.450;7.346;2022-11-20T14:11:37;14.77;;;9.63;;
12587;SDS011;6359;51.450;7.346;2022-11-20T14:14:15;14.93;;;10.00;;
12587;SDS011;6359;51.450;7.346;2022-11-20T14:16:44;14.25;;;10.25;;
12587;SDS011;6359;51.450;7.346;2022-11-20T14:19:22;17.08;;;10.63;;
12587;SDS011;6359;51.450;7.346;2022-11-20T14:21:53;14.40;;;10.88;;
12587;SDS011;6359;51.450;7.346;2022-11-20T14:24:32;14.85;;;10.25;;
12587;SDS011;6359;51.450;7.346;2022-11-20T14:26:59;16.25;;;10.65;;
12587;SDS011;6359;51.450;7.346;2022-11-20T14:29:28;14.40;;;10.05;;
12587;SDS011;6359;51.450;7.346;2022-11-20T14:31:58;18.52;;;10.90;;
12587;SDS011;6359;51.450;7.346;2022-11-20T14:34:26;15.07;;;10.10;;
12587;SDS011;6359;51.450;7.346;2022-11-20T14:36:56;14.70;;;10.50;;
12587;SDS011;6359;51.450;7.346;2022-11-20T14:39:26;16.55;;;10.93;;
12587;SDS011;6359;51.450;7.346;2022-11-20T14:41:56;15.55;;;10.88;;
12587;SDS011;6359;51.450;7.346;2022-11-20T14:44:25;17.45;;;10.88;;
12587;SDS011;6359;51.450;7.346;2022-11-20T14:46:57;14.77;;;10.77;;
12587;SDS011;6359;51.450;7.346;2022-11-20T14:49:26;14.98;;;10.80;;
12587;SDS011;6359;51.450;7.346;2022-11-20T14:51:58;14.43;;;10.43;;
12587;SDS011;6359;51.450;7.346;2022-11-20T14:54:26;16.65;;;10.40;;
12587;SDS011;6359;51.450;7.346;2022-11-20T14:56:55;15.40;;;11.13;;
12587;SDS011;6359;51.450;7.346;2022-11-20T14:59:23;17.10;;;11.82;;
12587;SDS011;6359;51.450;7.346;2022-11-20T15:01:55;17.30;;;11.57;;
12587;SDS011;6359;51.450;7.346;2022-11-20T15:04:24;16.45;;;10.43;;